createdAt,value
2018-07-07T09:03:07.917Z,44.70
2018-07-07T09:05:36.057Z,43.50
2018-07-07T09:08:04.521Z,43.30
2018-07-07T09:10:33.788Z,43.70
2018-07-07T09:13:01.910Z,43.90
2018-07-07T09:15:30.153Z,43.70
2018-07-07T09:17:58.300Z,43.60
2018-07-07T09:20:26.429Z,43.40
2018-07-07T09:22:54.640Z,43.10
2018-07-07T09:25:22.836Z,42.90
2018-07-07T09:27:50.957Z,43.00
2018-07-07T09:30:19.077Z,43.30
2018-07-07T09:32:47.222Z,43.50
2018-07-07T09:35:15.354Z,43.50
2018-07-07T09:37:43.481Z,43.60
2018-07-07T09:40:12.075Z,43.60
2018-07-07T09:42:40.201Z,43.40
2018-07-07T09:45:08.328Z,43.20
2018-07-07T09:47:36.509Z,42.90
2018-07-07T09:50:04.681Z,43.10
2018-07-07T09:52:32.805Z,43.00
2018-07-07T09:55:00.951Z,42.70
2018-07-07T09:57:29.068Z,42.60
2018-07-07T09:59:57.220Z,42.50
2018-07-07T10:02:25.381Z,42.60
2018-07-07T10:04:53.488Z,42.40
2018-07-07T10:07:21.644Z,42.20
2018-07-07T10:09:49.769Z,41.70
2018-07-07T10:12:17.960Z,41.70
2018-07-07T10:14:46.081Z,41.80
2018-07-07T10:17:14.254Z,42.10
2018-07-07T10:19:42.393Z,42.10
2018-07-07T10:22:10.524Z,41.70
2018-07-07T10:24:38.664Z,41.50
2018-07-07T10:27:06.781Z,41.70
2018-07-07T10:29:34.952Z,41.60
2018-07-07T10:32:03.915Z,41.80
2018-07-07T10:34:32.072Z,42.10
2018-07-07T10:37:00.208Z,42.60
2018-07-07T10:39:28.522Z,42.90
2018-07-07T10:41:58.117Z,43.00
2018-07-07T10:44:26.280Z,42.90
2018-07-07T10:46:54.413Z,42.80
2018-07-07T10:49:22.537Z,42.90
2018-07-07T10:51:51.777Z,42.70
2018-07-07T10:54:19.921Z,42.40
2018-07-07T10:56:48.041Z,42.40
2018-07-07T10:59:16.190Z,42.30
2018-07-07T11:01:44.331Z,42.40
2018-07-07T11:04:13.144Z,42.50
2018-07-07T11:06:41.269Z,42.70
2018-07-07T11:09:09.875Z,42.80
2018-07-07T11:11:38.058Z,42.80
2018-07-07T11:14:06.178Z,42.60
2018-07-07T11:16:34.344Z,42.20
2018-07-07T11:19:02.510Z,42.20
2018-07-07T11:21:30.660Z,42.00
2018-07-07T11:23:58.778Z,41.80
2018-07-07T11:26:26.901Z,41.30
2018-07-07T11:28:55.044Z,41.10
2018-07-07T11:31:23.180Z,40.60
2018-07-07T11:33:51.316Z,40.50
2018-07-07T11:36:19.545Z,40.50
2018-07-07T11:38:47.610Z,40.30
2018-07-07T11:41:18.338Z,39.80
2018-07-07T11:43:46.993Z,39.80
2018-07-07T11:46:15.149Z,39.80
2018-07-07T11:48:43.414Z,39.80
2018-07-07T11:51:12.244Z,39.90
2018-07-07T11:53:40.393Z,40.10
2018-07-07T11:56:08.585Z,40.10
2018-07-07T11:58:36.760Z,40.00
2018-07-07T12:01:04.902Z,39.80
2018-07-07T12:03:33.129Z,39.70
2018-07-07T12:06:01.254Z,39.40
2018-07-07T12:08:29.415Z,39.40
2018-07-07T12:10:57.528Z,39.70
2018-07-07T12:13:25.718Z,39.90
2018-07-07T12:15:53.870Z,40.10
2018-07-07T12:18:22.852Z,39.90
2018-07-07T12:20:51.965Z,39.70
2018-07-07T12:23:20.170Z,39.70
2018-07-07T12:25:48.337Z,39.50
2018-07-07T12:28:16.462Z,39.40
2018-07-07T12:30:44.841Z,39.20
2018-07-07T12:33:12.981Z,39.00
2018-07-07T12:35:41.108Z,38.90
2018-07-07T12:38:09.221Z,39.20
2018-07-07T12:40:37.409Z,39.50
2018-07-07T12:43:05.521Z,39.70
2018-07-07T12:45:44.421Z,40.00
2018-07-07T12:48:12.548Z,39.90
2018-07-07T12:50:40.664Z,39.70
2018-07-07T12:53:08.804Z,39.50
2018-07-07T12:55:36.935Z,39.40
2018-07-07T12:58:05.452Z,39.10
2018-07-07T13:00:33.651Z,38.90
2018-07-07T13:03:02.221Z,38.80
2018-07-07T13:05:30.667Z,39.00
2018-07-07T13:07:58.803Z,38.90
2018-07-07T13:10:27.144Z,38.70
2018-07-07T13:12:55.263Z,38.60
2018-07-07T13:15:23.382Z,38.60
2018-07-07T13:17:51.500Z,38.80
2018-07-07T13:20:19.639Z,39.10
2018-07-07T13:22:47.756Z,39.20
2018-07-07T13:25:15.901Z,39.10
2018-07-07T13:27:44.044Z,39.10
2018-07-07T13:30:12.173Z,39.00
2018-07-07T13:32:40.314Z,38.60
2018-07-07T13:35:08.445Z,38.30
2018-07-07T13:37:36.562Z,38.20
2018-07-07T13:40:04.722Z,38.40
2018-07-07T13:42:32.872Z,38.40
2018-07-07T13:45:00.989Z,38.60
2018-07-07T13:47:29.157Z,38.70
2018-07-07T13:49:57.278Z,38.90
2018-07-07T13:52:25.402Z,39.00
2018-07-07T13:54:53.541Z,39.10
2018-07-07T13:57:21.669Z,39.20
2018-07-07T13:59:49.785Z,39.40
2018-07-07T14:02:18.098Z,39.50
2018-07-07T14:04:46.280Z,39.50
2018-07-07T14:07:14.399Z,39.60
2018-07-07T14:09:43.057Z,39.60
2018-07-07T14:12:11.181Z,39.70
2018-07-07T14:14:39.317Z,40.20
2018-07-07T14:17:07.528Z,40.40
2018-07-07T14:19:35.692Z,40.40
2018-07-07T14:22:03.849Z,40.40
2018-07-07T14:24:31.983Z,40.50
2018-07-07T14:27:00.123Z,40.70
2018-07-07T14:29:28.271Z,40.90
2018-07-07T14:31:56.462Z,40.90
2018-07-07T14:34:24.565Z,40.70
2018-07-07T14:36:53.406Z,40.90
2018-07-07T14:39:41.974Z,41.00
2018-07-07T14:43:13.567Z,41.10
2018-07-07T14:45:51.936Z,41.20
2018-07-07T14:48:20.091Z,41.30
2018-07-07T14:50:48.225Z,41.10
2018-07-07T14:53:16.383Z,40.90
2018-07-07T14:55:46.500Z,40.70
2018-07-07T14:58:14.676Z,40.60
2018-07-07T15:00:42.782Z,40.60
2018-07-07T15:03:10.923Z,40.70
2018-07-07T15:05:39.093Z,40.60
2018-07-07T15:08:07.231Z,40.80
2018-07-07T15:10:35.367Z,40.80
2018-07-07T15:13:03.511Z,40.90
2018-07-07T15:15:31.705Z,41.10
2018-07-07T15:17:59.794Z,40.80
2018-07-07T15:20:27.937Z,40.60
2018-07-07T15:22:56.133Z,40.50
2018-07-07T15:25:24.228Z,40.60
2018-07-07T15:27:52.377Z,40.50
2018-07-07T15:30:20.538Z,40.30
2018-07-07T15:32:48.675Z,40.10
2018-07-07T15:35:16.828Z,39.70
2018-07-07T15:37:45.079Z,39.50
2018-07-07T15:40:13.849Z,39.50
2018-07-07T15:42:46.528Z,39.70
2018-07-07T15:45:14.620Z,39.60
2018-07-07T15:47:42.748Z,40.00
2018-07-07T15:50:10.890Z,39.80
2018-07-07T15:52:39.045Z,39.80
2018-07-07T15:55:07.205Z,39.80
2018-07-07T15:57:35.396Z,39.50
2018-07-07T16:00:03.760Z,39.20
2018-07-07T16:02:31.911Z,38.90
2018-07-07T16:05:00.097Z,38.90
2018-07-07T16:07:28.231Z,39.20
2018-07-07T16:09:56.439Z,39.30
2018-07-07T16:12:24.555Z,39.20
2018-07-07T16:14:52.676Z,39.40
2018-07-07T16:17:20.809Z,39.50
2018-07-07T16:19:48.970Z,39.40
2018-07-07T16:22:17.082Z,39.40
2018-07-07T16:24:45.211Z,39.20
2018-07-07T16:27:13.411Z,39.30
2018-07-07T16:29:41.523Z,39.30
2018-07-07T16:32:09.647Z,39.30
2018-07-07T16:34:37.839Z,39.20
2018-07-07T16:37:06.150Z,39.00
2018-07-07T16:39:34.262Z,38.90
2018-07-07T16:42:03.275Z,39.00
2018-07-07T16:44:31.742Z,39.70
2018-07-07T16:47:00.921Z,39.20
2018-07-07T16:49:29.057Z,39.20
2018-07-07T16:51:59.289Z,39.20
2018-07-07T16:54:27.424Z,39.20
2018-07-07T16:56:55.562Z,39.20
2018-07-07T16:59:23.853Z,39.10
2018-07-07T17:01:52.601Z,39.10
2018-07-07T17:04:21.019Z,39.20
2018-07-07T17:06:49.466Z,39.20
2018-07-07T17:09:19.088Z,39.20
2018-07-07T17:11:47.597Z,39.30
2018-07-07T17:14:15.722Z,39.50
2018-07-07T17:16:44.833Z,39.70
2018-07-07T17:19:14.420Z,39.80
2018-07-07T17:21:43.117Z,39.70
2018-07-07T17:24:11.242Z,39.70
2018-07-07T17:26:40.487Z,39.50
2018-07-07T17:29:08.878Z,39.70
2018-07-07T17:31:37.047Z,39.60
2018-07-07T17:34:05.200Z,39.70
2018-07-07T17:36:33.487Z,39.40
2018-07-07T17:39:01.609Z,39.30
2018-07-07T17:41:29.773Z,39.10
2018-07-07T17:44:08.929Z,39.10
2018-07-07T17:46:37.686Z,39.00
2018-07-07T17:49:05.818Z,39.00
2018-07-07T17:51:34.541Z,39.10
2018-07-07T17:54:02.687Z,39.00
2018-07-07T17:56:30.837Z,38.60
2018-07-07T17:58:59.405Z,38.40
2018-07-07T18:01:27.573Z,38.30
2018-07-07T18:03:56.113Z,38.00
2018-07-07T18:06:24.241Z,38.00
2018-07-07T18:08:52.396Z,37.20
2018-07-07T18:11:20.561Z,37.80
2018-07-07T18:13:48.778Z,37.90
2018-07-07T18:16:16.997Z,38.00
2018-07-07T18:18:45.119Z,38.20
2018-07-07T18:21:13.290Z,38.20
2018-07-07T18:23:41.404Z,38.20
2018-07-07T18:26:09.533Z,38.10
2018-07-07T18:28:38.078Z,38.10
2018-07-07T18:31:06.225Z,38.10
2018-07-07T18:33:34.371Z,38.00
2018-07-07T18:36:02.785Z,38.00
2018-07-07T18:38:30.932Z,38.10
2018-07-07T18:40:59.799Z,38.30
2018-07-07T18:43:28.041Z,38.40
2018-07-07T18:45:57.076Z,38.50
2018-07-07T18:48:25.205Z,38.70
2018-07-07T18:50:53.397Z,38.90
2018-07-07T18:53:21.513Z,39.00
2018-07-07T18:55:49.648Z,39.20
2018-07-07T18:58:17.832Z,39.30
2018-07-07T19:00:45.956Z,39.40
2018-07-07T19:03:14.078Z,39.50
2018-07-07T19:05:42.220Z,39.70
2018-07-07T19:08:10.359Z,39.90
2018-07-07T19:10:38.494Z,40.10
2018-07-07T19:13:06.768Z,41.00
2018-07-07T19:15:34.897Z,40.60
2018-07-07T19:18:03.039Z,40.70
2018-07-07T19:20:36.494Z,40.90
2018-07-07T19:23:10.037Z,41.10
2018-07-07T19:25:43.585Z,41.40
2018-07-07T19:28:11.722Z,41.70
2018-07-07T19:30:40.436Z,42.00
2018-07-07T19:33:13.849Z,42.40
2018-07-07T19:35:47.392Z,42.70
2018-07-07T19:38:16.037Z,43.10
2018-07-07T19:40:44.180Z,43.40
2018-07-07T19:43:12.775Z,43.80
2018-07-07T19:45:40.907Z,44.10
2018-07-07T19:48:10.065Z,44.30
2018-07-07T19:50:38.217Z,44.50
2018-07-07T19:53:06.388Z,44.60
2018-07-07T19:55:34.555Z,44.70
2018-07-07T19:58:02.679Z,44.70
2018-07-07T20:00:30.824Z,44.80
2018-07-07T20:02:58.956Z,44.90
2018-07-07T20:05:27.122Z,45.10
2018-07-07T20:07:55.288Z,45.20
2018-07-07T20:13:01.845Z,44.60
2018-07-07T20:15:41.462Z,45.40
2018-07-07T20:18:10.834Z,45.50
2018-07-07T20:20:44.383Z,45.50
2018-07-07T20:23:13.776Z,45.60
2018-07-07T20:25:42.011Z,45.60
2018-07-07T20:28:15.598Z,45.70
2018-07-07T20:30:43.739Z,45.80
2018-07-07T20:33:11.931Z,46.10
2018-07-07T20:35:40.205Z,46.30
2018-07-07T20:38:08.340Z,46.40
2018-07-07T20:40:36.474Z,46.50
2018-07-07T20:43:05.521Z,46.60
2018-07-07T20:45:33.678Z,46.80
2018-07-07T20:48:01.807Z,47.00
2018-07-07T20:50:30.353Z,47.10
2018-07-07T20:52:58.538Z,47.30
2018-07-07T20:55:26.667Z,47.70
2018-07-07T20:57:54.841Z,47.40
2018-07-07T21:00:22.961Z,47.50
2018-07-07T21:02:51.085Z,47.50
2018-07-07T21:05:19.250Z,47.60
2018-07-07T21:07:47.410Z,47.60
2018-07-07T21:10:15.661Z,47.70
2018-07-07T21:12:43.814Z,47.80
2018-07-07T21:15:11.966Z,47.90
2018-07-07T21:17:40.109Z,48.00
2018-07-07T21:20:08.342Z,48.10
2018-07-07T21:22:36.472Z,48.20
2018-07-07T21:25:04.609Z,48.40
2018-07-07T21:27:32.750Z,48.40
2018-07-07T21:30:00.885Z,48.40
2018-07-07T21:32:29.138Z,48.40
2018-07-07T21:34:57.301Z,48.40
2018-07-07T21:37:25.473Z,48.50
2018-07-07T21:39:53.664Z,48.60
2018-07-07T21:42:22.179Z,48.70
2018-07-07T21:44:50.338Z,48.80
2018-07-07T21:47:18.491Z,48.90
2018-07-07T21:49:46.624Z,49.00
2018-07-07T21:52:26.952Z,49.00
2018-07-07T21:54:55.783Z,49.20
2018-07-07T21:57:29.319Z,49.20
2018-07-07T21:59:57.453Z,49.20
2018-07-07T22:02:31.071Z,49.30
2018-07-07T22:05:04.639Z,49.50
2018-07-07T22:07:38.202Z,49.60
2018-07-07T22:10:06.362Z,49.80
2018-07-07T22:12:34.507Z,50.00
2018-07-07T22:15:02.646Z,50.10
2018-07-07T22:17:31.260Z,50.20
2018-07-07T22:19:59.398Z,50.40
2018-07-07T22:22:27.536Z,50.50
2018-07-07T22:24:55.695Z,50.70
2018-07-07T22:27:23.835Z,50.90
2018-07-07T22:29:51.965Z,51.00
2018-07-07T22:32:23.733Z,51.20
2018-07-07T22:34:52.181Z,51.40
2018-07-07T22:37:20.329Z,51.60
2018-07-07T22:39:48.553Z,51.90
2018-07-07T22:42:17.837Z,52.20
2018-07-07T22:44:47.622Z,52.50
2018-07-07T22:47:15.765Z,52.70
2018-07-07T22:49:43.924Z,52.90
2018-07-07T22:52:12.139Z,53.00
2018-07-07T22:54:40.309Z,53.30
2018-07-07T22:57:10.164Z,53.60
2018-07-07T22:59:38.293Z,53.80
2018-07-07T23:02:06.478Z,54.10
2018-07-07T23:04:34.605Z,54.40
2018-07-07T23:07:02.729Z,54.70
2018-07-07T23:09:30.866Z,55.00
2018-07-07T23:11:59.026Z,55.20
2018-07-07T23:14:27.155Z,55.40
2018-07-07T23:16:58.929Z,55.60
2018-07-07T23:19:27.285Z,55.80
2018-07-07T23:21:55.466Z,56.00
2018-07-07T23:24:23.633Z,56.10
2018-07-07T23:26:51.910Z,56.30
2018-07-07T23:29:20.045Z,56.40
2018-07-07T23:31:48.334Z,56.60
2018-07-07T23:34:16.461Z,56.70
2018-07-07T23:36:44.583Z,56.80
2018-07-07T23:39:12.732Z,56.90
2018-07-07T23:41:40.876Z,57.00
2018-07-07T23:44:08.985Z,57.10
2018-07-07T23:46:37.126Z,57.10
2018-07-07T23:49:05.345Z,57.10
2018-07-07T23:51:33.890Z,57.20
2018-07-07T23:54:02.035Z,57.20
2018-07-07T23:56:30.170Z,57.40
2018-07-07T23:58:59.538Z,57.50
